createdAt,value
2022-11-05T00:00:35.010Z,90.18
2022-11-05T00:03:20.471Z,90.01
2022-11-05T00:06:09.640Z,90.73
2022-11-05T00:08:54.915Z,90.69
2022-11-05T00:11:41.502Z,90.83
2022-11-05T00:14:26.743Z,90.71
2022-11-05T00:16:53.328Z,90.96
2022-11-05T00:19:19.903Z,91.22
2022-11-05T00:22:04.834Z,90.76
2022-11-05T00:24:49.786Z,91.27
2022-11-05T00:27:16.295Z,91.35
2022-11-05T00:29:43.206Z,91.93
2022-11-05T00:32:09.782Z,92.37
2022-11-05T00:34:36.311Z,92.49
2022-11-05T00:37:02.828Z,92.62
2022-11-05T00:39:29.758Z,93.40
2022-11-05T00:42:14.640Z,93.30
2022-11-05T00:44:59.516Z,93.51
2022-11-05T00:47:44.781Z,93.74
2022-11-05T00:50:11.869Z,94.01
2022-11-05T00:52:57.370Z,93.92
2022-11-05T00:55:41.028Z,93.44
2022-11-05T00:58:29.200Z,93.52
2022-11-05T01:01:01.430Z,93.58
2022-11-05T01:03:31.304Z,94.10
2022-11-05T01:06:06.239Z,94.24
2022-11-05T01:08:32.864Z,94.39
2022-11-05T01:10:59.828Z,94.99
2022-11-05T01:13:29.549Z,95.67
2022-11-05T01:15:56.919Z,96.37
2022-11-05T01:18:24.444Z,96.51
2022-11-05T01:20:51.302Z,96.81
2022-11-05T01:23:18.155Z,97.32
2022-11-05T01:25:45.781Z,96.75
2022-11-05T01:28:12.325Z,97.04
2022-11-05T01:30:39.304Z,96.82
2022-11-05T01:33:05.902Z,96.84
2022-11-05T01:35:32.491Z,96.78
2022-11-05T01:37:59.103Z,96.99
2022-11-05T01:40:26.180Z,97.09
2022-11-05T01:42:52.789Z,97.55
2022-11-05T01:45:28.027Z,97.62
2022-11-05T01:48:09.143Z,97.71
2022-11-05T01:50:50.863Z,99.39
2022-11-05T01:53:27.010Z,100.00
2022-11-05T01:56:08.371Z,100.00
2022-11-05T01:58:42.490Z,100.00
2022-11-05T02:01:09.261Z,100.00
2022-11-05T02:03:36.106Z,100.00
2022-11-05T02:06:03.899Z,100.00
2022-11-05T02:09:09.416Z,100.00
2022-11-05T02:11:35.992Z,100.00
2022-11-05T02:14:02.555Z,100.00
2022-11-05T02:16:43.632Z,100.00
2022-11-05T02:19:25.419Z,100.00
2022-11-05T02:22:20.040Z,100.00
2022-11-05T02:25:31.677Z,100.00
2022-11-05T02:28:07.281Z,100.00
2022-11-05T02:30:46.239Z,100.00
2022-11-05T02:34:07.985Z,100.00
2022-11-05T02:36:44.790Z,100.00
2022-11-05T02:39:53.426Z,100.00
2022-11-05T02:42:40.844Z,100.00
2022-11-05T02:45:10.306Z,100.00
2022-11-05T02:48:03.986Z,100.00
2022-11-05T02:50:34.140Z,100.00
2022-11-05T02:53:45.253Z,100.00
2022-11-05T02:56:20.218Z,100.00
2022-11-05T02:58:46.813Z,100.00
2022-11-05T03:01:13.546Z,100.00
2022-11-05T03:03:43.709Z,100.00
2022-11-05T03:06:12.986Z,100.00
2022-11-05T03:09:08.657Z,100.00
2022-11-05T03:12:02.837Z,100.00
2022-11-05T03:15:01.362Z,100.00
2022-11-05T03:17:30.506Z,100.00
2022-11-05T03:20:19.343Z,100.00
2022-11-05T03:23:21.454Z,100.00
2022-11-05T03:25:53.868Z,100.00
2022-11-05T03:28:24.810Z,100.00
2022-11-05T03:30:54.033Z,100.00
2022-11-05T03:33:25.785Z,100.00
2022-11-05T03:35:56.399Z,100.00
2022-11-05T03:38:33.587Z,100.00
2022-11-05T03:41:02.808Z,100.00
2022-11-05T03:43:34.329Z,100.00
2022-11-05T03:46:06.579Z,100.00
2022-11-05T03:48:38.297Z,100.00
2022-11-05T03:51:29.350Z,100.00
2022-11-05T03:53:59.176Z,100.00
2022-11-05T03:56:37.790Z,100.00
2022-11-05T03:59:06.679Z,100.00
2022-11-05T04:01:33.620Z,100.00
2022-11-05T04:04:00.267Z,100.00
2022-11-05T04:06:45.342Z,100.00
2022-11-05T04:09:30.242Z,100.00
2022-11-05T04:12:15.059Z,100.00
2022-11-05T04:14:41.688Z,100.00
2022-11-05T04:17:10.994Z,100.00
2022-11-05T04:19:58.678Z,100.00
2022-11-05T04:22:46.117Z,100.00
2022-11-05T04:25:14.146Z,100.00
2022-11-05T04:27:40.725Z,100.00
2022-11-05T04:30:20.523Z,100.00
2022-11-05T04:33:07.458Z,100.00
2022-11-05T04:35:47.346Z,100.00
2022-11-05T04:38:19.191Z,100.00
2022-11-05T04:40:46.982Z,100.00
2022-11-05T04:43:15.701Z,100.00
2022-11-05T04:45:42.925Z,100.00
2022-11-05T04:48:09.731Z,100.00
2022-11-05T04:50:36.327Z,100.00
2022-11-05T04:53:02.882Z,100.00
2022-11-05T04:55:29.616Z,100.00
2022-11-05T04:57:56.373Z,100.00
2022-11-05T05:00:24.048Z,100.00
2022-11-05T05:02:50.741Z,100.00
2022-11-05T05:05:17.357Z,100.00
2022-11-05T05:07:43.872Z,100.00
2022-11-05T05:10:11.296Z,100.00
2022-11-05T05:12:37.891Z,100.00
2022-11-05T05:15:05.336Z,100.00
2022-11-05T05:17:31.763Z,100.00
2022-11-05T05:20:16.797Z,100.00
2022-11-05T05:22:43.472Z,100.00
2022-11-05T05:25:10.019Z,100.00
2022-11-05T05:27:36.557Z,100.00
2022-11-05T05:30:03.547Z,100.00
2022-11-05T05:32:30.102Z,100.00
2022-11-05T05:34:56.692Z,100.00
2022-11-05T05:37:23.266Z,100.00
2022-11-05T05:39:50.169Z,100.00
2022-11-05T05:42:16.740Z,100.00
2022-11-05T05:44:43.333Z,100.00
2022-11-05T05:47:10.485Z,100.00
2022-11-05T05:49:37.012Z,100.00
2022-11-05T05:52:03.646Z,100.00
2022-11-05T05:54:32.864Z,100.00
2022-11-05T05:57:01.654Z,100.00
2022-11-05T05:59:28.248Z,100.00
2022-11-05T06:01:54.973Z,100.00
2022-11-05T06:04:21.720Z,100.00
2022-11-05T06:06:48.297Z,100.00
2022-11-05T06:09:15.367Z,100.00
2022-11-05T06:11:41.990Z,100.00
2022-11-05T06:14:13.030Z,98.70
2022-11-05T06:16:40.400Z,98.66
2022-11-05T06:19:07.842Z,98.25
2022-11-05T06:21:34.578Z,95.92
2022-11-05T06:24:04.894Z,94.67
2022-11-05T06:26:31.697Z,94.26
2022-11-05T06:28:58.232Z,94.01
2022-11-05T06:31:25.490Z,93.58
2022-11-05T06:33:52.118Z,94.34
2022-11-05T06:36:20.085Z,94.24
2022-11-05T06:38:46.981Z,92.74
2022-11-05T06:41:13.807Z,92.32
2022-11-05T06:43:40.781Z,93.06
2022-11-05T06:46:08.030Z,92.74
2022-11-05T06:48:34.736Z,92.88
2022-11-05T06:51:01.309Z,93.15
2022-11-05T06:53:28.563Z,93.96
2022-11-05T06:55:55.208Z,93.09
2022-11-05T06:58:21.831Z,92.56
2022-11-05T07:00:48.908Z,90.49
2022-11-05T07:03:15.984Z,89.74
2022-11-05T07:05:46.663Z,89.34
2022-11-05T07:08:13.741Z,87.62
2022-11-05T07:10:40.395Z,85.78
2022-11-05T07:13:08.633Z,85.22
2022-11-05T07:15:36.734Z,85.48
2022-11-05T07:18:04.385Z,85.05
2022-11-05T07:20:34.321Z,84.30
2022-11-05T07:23:12.524Z,83.27
2022-11-05T07:25:40.169Z,82.80
2022-11-05T07:28:06.863Z,81.35
2022-11-05T07:30:34.627Z,82.19
2022-11-05T07:33:01.508Z,82.22
2022-11-05T07:35:28.502Z,82.05
2022-11-05T07:37:55.576Z,82.72
2022-11-05T07:40:25.685Z,84.53
2022-11-05T07:42:58.263Z,86.66
2022-11-05T07:45:27.932Z,87.68
2022-11-05T07:48:00.400Z,88.19
2022-11-05T07:50:30.656Z,88.56
2022-11-05T07:53:02.225Z,88.91
2022-11-05T07:55:29.396Z,89.26
2022-11-05T07:57:55.957Z,89.28
2022-11-05T08:00:23.910Z,88.91
2022-11-05T08:03:07.363Z,88.90
2022-11-05T08:05:37.741Z,87.76
2022-11-05T08:08:05.743Z,88.75
2022-11-05T08:10:34.006Z,88.46
2022-11-05T08:13:00.661Z,87.99
2022-11-05T08:15:27.276Z,87.47
2022-11-05T08:18:10.465Z,86.78
2022-11-05T08:20:38.758Z,85.11
2022-11-05T08:23:05.890Z,83.88
2022-11-05T08:25:32.411Z,84.16
2022-11-05T08:28:04.699Z,83.82
2022-11-05T08:30:32.150Z,83.69
2022-11-05T08:32:59.874Z,82.46
2022-11-05T08:35:27.986Z,78.86
2022-11-05T08:37:59.323Z,75.45
2022-11-05T08:40:26.502Z,71.24
2022-11-05T08:42:53.201Z,70.30
2022-11-05T08:45:19.770Z,70.58
2022-11-05T08:47:46.314Z,64.25
2022-11-05T08:50:12.851Z,65.18
2022-11-05T08:52:42.515Z,66.53
2022-11-05T08:55:09.639Z,67.88
2022-11-05T08:57:36.311Z,68.91
2022-11-05T09:00:03.372Z,65.30
2022-11-05T09:02:30.026Z,62.51
2022-11-05T09:04:56.676Z,61.02
2022-11-05T09:07:23.326Z,59.98
2022-11-05T09:09:49.920Z,61.07
2022-11-05T09:12:16.645Z,60.18
2022-11-05T09:14:43.211Z,60.72
2022-11-05T09:17:17.654Z,61.53
2022-11-05T09:19:44.439Z,62.74
2022-11-05T09:22:13.037Z,63.18
2022-11-05T09:24:40.695Z,62.88
2022-11-05T09:27:10.374Z,61.03
2022-11-05T09:29:37.067Z,60.59
2022-11-05T09:32:03.739Z,60.71
2022-11-05T09:34:30.309Z,59.68
2022-11-05T09:36:57.726Z,59.80
2022-11-05T09:39:24.491Z,59.12
2022-11-05T09:41:54.705Z,59.18
2022-11-05T09:44:30.011Z,59.50
2022-11-05T09:47:00.875Z,58.28
2022-11-05T09:49:35.423Z,58.91
2022-11-05T09:52:02.595Z,58.16
2022-11-05T09:54:34.139Z,57.61
2022-11-05T09:57:03.102Z,57.30
2022-11-05T09:59:39.412Z,58.03
2022-11-05T10:02:26.791Z,58.15
2022-11-05T10:05:01.482Z,58.40
2022-11-05T10:07:35.486Z,56.90
2022-11-05T10:10:06.036Z,56.59
2022-11-05T10:12:52.817Z,56.70
2022-11-05T10:15:33.072Z,56.13
2022-11-05T10:18:14.654Z,55.58
2022-11-05T10:20:44.158Z,56.92
2022-11-05T10:23:14.469Z,55.71
2022-11-05T10:25:46.021Z,54.81
2022-11-05T10:28:20.947Z,54.77
2022-11-05T10:30:50.558Z,53.81
2022-11-05T10:33:29.041Z,54.19
2022-11-05T10:36:02.329Z,53.99
2022-11-05T10:38:29.258Z,53.74
2022-11-05T10:41:10.494Z,53.98
2022-11-05T10:43:40.920Z,55.94
2022-11-05T10:46:34.927Z,55.33
2022-11-05T10:49:09.847Z,55.53
2022-11-05T10:51:36.733Z,55.96
2022-11-05T10:54:19.371Z,55.41
2022-11-05T10:56:45.962Z,54.65
2022-11-05T10:59:27.602Z,54.61
2022-11-05T11:02:18.143Z,54.81
2022-11-05T11:04:54.256Z,54.78
2022-11-05T11:07:24.774Z,54.97
2022-11-05T11:09:52.316Z,54.28
2022-11-05T11:12:26.015Z,54.08
2022-11-05T11:15:15.806Z,54.01
2022-11-05T11:17:42.437Z,54.04
2022-11-05T11:20:23.527Z,54.31
2022-11-05T11:23:02.979Z,52.98
2022-11-05T11:25:44.883Z,51.73
2022-11-05T11:28:26.832Z,48.72
2022-11-05T11:31:03.601Z,47.60
2022-11-05T11:33:31.617Z,47.68
2022-11-05T11:35:58.777Z,48.23
2022-11-05T11:38:30.060Z,47.96
2022-11-05T11:41:17.513Z,48.28
2022-11-05T11:43:45.050Z,48.09
2022-11-05T11:46:20.587Z,48.22
2022-11-05T11:48:49.412Z,47.84
2022-11-05T11:51:30.378Z,47.79
2022-11-05T11:54:00.192Z,47.86
2022-11-05T11:56:29.141Z,48.07
2022-11-05T11:59:01.127Z,47.81
2022-11-05T12:01:49.672Z,47.83
2022-11-05T12:04:35.743Z,47.71
2022-11-05T12:07:37.080Z,47.97
2022-11-05T12:10:18.673Z,48.12
2022-11-05T12:13:14.141Z,48.36
2022-11-05T12:16:02.398Z,48.38
2022-11-05T12:18:55.303Z,48.86
2022-11-05T12:22:03.447Z,48.14
2022-11-05T12:24:54.732Z,48.47
2022-11-05T12:28:04.340Z,47.52
2022-11-05T12:31:01.164Z,46.13
2022-11-05T12:33:30.198Z,46.33
2022-11-05T12:36:25.951Z,45.79
2022-11-05T12:39:14.643Z,45.40
2022-11-05T12:41:59.971Z,45.40
2022-11-05T12:44:45.182Z,45.21
2022-11-05T12:47:14.655Z,44.79
2022-11-05T12:50:02.380Z,45.03
2022-11-05T12:52:38.447Z,44.93
2022-11-05T12:55:21.173Z,45.70
2022-11-05T12:57:51.940Z,45.22
2022-11-05T13:00:27.833Z,44.76
2022-11-05T13:02:57.143Z,44.85
2022-11-05T13:05:40.887Z,45.74
2022-11-05T13:08:48.990Z,44.63
2022-11-05T13:11:21.625Z,42.94
2022-11-05T13:14:18.372Z,42.11
2022-11-05T13:16:47.571Z,42.90
2022-11-05T13:19:36.538Z,41.57
2022-11-05T13:22:13.327Z,42.21
2022-11-05T13:24:49.744Z,40.92
2022-11-05T13:27:22.357Z,41.74
2022-11-05T13:30:12.427Z,42.16
2022-11-05T13:32:53.259Z,42.14
2022-11-05T13:35:31.467Z,42.17
2022-11-05T13:38:26.747Z,41.11
2022-11-05T13:41:35.697Z,39.53
2022-11-05T13:44:13.298Z,39.68
2022-11-05T13:47:13.206Z,40.25
2022-11-05T13:50:18.907Z,40.05
2022-11-05T13:52:51.520Z,39.45
2022-11-05T13:55:57.674Z,39.16
2022-11-05T13:58:37.576Z,39.61
2022-11-05T14:01:20.492Z,39.40
2022-11-05T14:03:50.847Z,39.55
2022-11-05T14:06:33.434Z,40.43
2022-11-05T14:09:10.198Z,40.82
2022-11-05T14:11:50.914Z,41.38
2022-11-05T14:14:29.895Z,42.00
2022-11-05T14:17:28.162Z,41.30
2022-11-05T14:20:37.300Z,41.83
2022-11-05T14:23:23.136Z,42.50
2022-11-05T14:26:19.721Z,42.47
2022-11-05T14:28:48.745Z,42.90
2022-11-05T14:31:47.349Z,43.02
2022-11-05T14:34:16.965Z,43.74
2022-11-05T14:37:14.062Z,43.71
2022-11-05T14:39:41.916Z,43.53
2022-11-05T14:42:24.711Z,44.02
2022-11-05T14:45:14.141Z,44.33
2022-11-05T14:47:53.093Z,44.33
2022-11-05T14:50:31.105Z,44.97
2022-11-05T14:53:06.778Z,45.06
2022-11-05T14:55:39.269Z,45.23
2022-11-05T14:58:46.167Z,45.23
2022-11-05T15:01:42.161Z,45.47
2022-11-05T15:04:32.888Z,45.62
2022-11-05T15:07:05.856Z,46.14
2022-11-05T15:09:40.410Z,46.62
2022-11-05T15:12:25.259Z,46.71
2022-11-05T15:15:02.172Z,46.99
2022-11-05T15:17:38.761Z,47.38
2022-11-05T15:20:16.707Z,47.81
2022-11-05T15:22:51.841Z,48.02
2022-11-05T15:25:28.719Z,48.27
2022-11-05T15:28:14.112Z,48.71
2022-11-05T15:31:01.681Z,49.26
2022-11-05T15:33:28.546Z,49.63
2022-11-05T15:36:07.604Z,49.98
2022-11-05T15:38:36.099Z,50.22
2022-11-05T15:41:20.032Z,50.23
2022-11-05T15:43:51.183Z,50.67
2022-11-05T15:46:21.855Z,50.90
2022-11-05T15:48:54.864Z,51.36
2022-11-05T15:51:23.984Z,52.03
2022-11-05T15:54:16.188Z,51.48
2022-11-05T15:56:49.194Z,51.38
2022-11-05T15:59:22.684Z,51.05
2022-11-05T16:01:58.057Z,51.06
2022-11-05T16:04:32.114Z,51.16
2022-11-05T16:07:11.108Z,53.21
2022-11-05T16:09:43.661Z,53.05
2022-11-05T16:12:19.586Z,53.76
2022-11-05T16:14:57.172Z,55.50
2022-11-05T16:17:28.796Z,56.64
2022-11-05T16:19:56.951Z,58.06
2022-11-05T16:22:24.143Z,58.75
2022-11-05T16:24:52.017Z,59.72
2022-11-05T16:27:22.047Z,60.41
2022-11-05T16:29:57.317Z,60.34
2022-11-05T16:32:31.135Z,60.75
2022-11-05T16:35:01.588Z,61.41
2022-11-05T16:37:40.042Z,61.41
2022-11-05T16:40:19.505Z,61.37
2022-11-05T16:42:48.592Z,61.27
2022-11-05T16:45:19.196Z,61.05
2022-11-05T16:47:48.792Z,61.46
2022-11-05T16:50:22.231Z,61.46
2022-11-05T16:52:49.338Z,61.72
2022-11-05T16:55:17.296Z,61.41
2022-11-05T16:57:47.753Z,61.66
2022-11-05T17:00:17.180Z,62.15
2022-11-05T17:02:44.466Z,61.59
2022-11-05T17:05:29.317Z,62.76
2022-11-05T17:07:57.721Z,62.58
2022-11-05T17:10:25.926Z,65.04
2022-11-05T17:12:54.031Z,63.60
2022-11-05T17:15:25.582Z,67.21
2022-11-05T17:17:54.674Z,67.13
2022-11-05T17:20:39.926Z,66.74
2022-11-05T17:23:21.475Z,67.12
2022-11-05T17:25:52.662Z,67.61
2022-11-05T17:28:21.363Z,68.00
2022-11-05T17:30:54.245Z,68.02
2022-11-05T17:33:23.235Z,68.30
2022-11-05T17:35:50.713Z,67.84
2022-11-05T17:38:17.552Z,68.46
2022-11-05T17:40:44.108Z,68.29
2022-11-05T17:43:11.306Z,68.54
2022-11-05T17:46:01.543Z,69.64
2022-11-05T17:48:30.971Z,71.13
2022-11-05T17:50:57.535Z,70.31
2022-11-05T17:53:24.253Z,70.04
2022-11-05T17:55:50.787Z,72.77
2022-11-05T17:58:17.524Z,73.42
2022-11-05T18:00:45.776Z,73.44
2022-11-05T18:03:13.358Z,75.60
2022-11-05T18:05:41.275Z,75.12
2022-11-05T18:08:08.790Z,75.99
2022-11-05T18:10:41.141Z,76.21
2022-11-05T18:13:10.214Z,76.32
2022-11-05T18:15:40.966Z,76.75
2022-11-05T18:18:09.244Z,75.94
2022-11-05T18:20:35.897Z,76.62
2022-11-05T18:23:02.626Z,75.94
2022-11-05T18:25:29.213Z,75.50
2022-11-05T18:27:56.863Z,76.51
2022-11-05T18:30:24.458Z,75.31
2022-11-05T18:32:52.316Z,74.32
2022-11-05T18:35:20.403Z,74.63
2022-11-05T18:37:48.471Z,74.99
2022-11-05T18:40:16.323Z,75.77
2022-11-05T18:42:43.131Z,76.80
2022-11-05T18:45:10.756Z,75.29
2022-11-05T18:47:37.296Z,74.41
2022-11-05T18:50:05.651Z,76.68
2022-11-05T18:52:32.851Z,76.02
2022-11-05T18:54:59.790Z,75.38
2022-11-05T18:57:26.879Z,74.88
2022-11-05T18:59:53.847Z,74.76
2022-11-05T19:02:20.543Z,75.23
2022-11-05T19:05:27.545Z,75.47
2022-11-05T19:07:44.545Z,78.15
2022-11-05T19:10:12.464Z,77.01
2022-11-05T19:12:42.273Z,78.83
2022-11-05T19:15:10.129Z,79.24
2022-11-05T19:17:37.707Z,78.54
2022-11-05T19:20:06.378Z,80.84
2022-11-05T19:22:33.274Z,82.14
2022-11-05T19:25:01.365Z,82.61
2022-11-05T19:27:27.994Z,82.00
2022-11-05T19:29:55.784Z,81.61
2022-11-05T19:32:24.493Z,81.12
2022-11-05T19:34:52.187Z,80.29
2022-11-05T19:37:20.140Z,81.21
2022-11-05T19:39:50.431Z,79.71
2022-11-05T19:42:18.044Z,79.88
2022-11-05T19:44:44.643Z,79.88
2022-11-05T19:47:11.254Z,82.90
2022-11-05T19:49:37.798Z,81.66
2022-11-05T19:52:04.632Z,81.63
2022-11-05T19:54:32.419Z,81.24
2022-11-05T19:57:00.332Z,81.36
2022-11-05T19:59:26.966Z,82.57
2022-11-05T20:01:53.614Z,84.35
2022-11-05T20:04:20.316Z,85.30
2022-11-05T20:06:46.860Z,82.99
2022-11-05T20:09:23.359Z,83.03
2022-11-05T20:11:54.933Z,83.50
2022-11-05T20:14:22.764Z,82.40
2022-11-05T20:16:49.996Z,81.98
2022-11-05T20:19:19.438Z,81.39
2022-11-05T20:21:46.619Z,81.10
2022-11-05T20:24:18.771Z,82.89
2022-11-05T20:26:48.890Z,83.59
2022-11-05T20:29:15.566Z,84.33
2022-11-05T20:31:42.163Z,83.45
2022-11-05T20:34:08.994Z,83.17
2022-11-05T20:36:35.557Z,83.65
2022-11-05T20:39:02.931Z,84.96
2022-11-05T20:41:30.623Z,84.75
2022-11-05T20:43:57.284Z,84.21
2022-11-05T20:46:23.972Z,84.08
2022-11-05T20:48:51.380Z,83.93
2022-11-05T20:51:20.537Z,84.75
2022-11-05T20:53:47.768Z,83.77
2022-11-05T20:56:19.651Z,84.78
2022-11-05T20:58:47.332Z,84.85
2022-11-05T21:01:15.451Z,84.71
2022-11-05T21:03:42.805Z,86.34
2022-11-05T21:06:09.445Z,86.36
2022-11-05T21:08:36.299Z,86.39
2022-11-05T21:11:02.888Z,85.92
2022-11-05T21:13:30.313Z,86.64
2022-11-05T21:15:58.599Z,86.84
2022-11-05T21:18:28.022Z,86.33
2022-11-05T21:20:55.283Z,87.88
2022-11-05T21:23:22.195Z,89.42
2022-11-05T21:25:48.747Z,90.51
2022-11-05T21:28:16.292Z,91.54
2022-11-05T21:30:45.850Z,91.18
2022-11-05T21:33:14.517Z,90.20
2022-11-05T21:35:44.122Z,89.06
2022-11-05T21:38:12.877Z,89.84
2022-11-05T21:40:40.531Z,88.94
2022-11-05T21:43:07.225Z,90.29
2022-11-05T21:45:33.831Z,90.58
2022-11-05T21:48:00.433Z,91.12
2022-11-05T21:50:45.726Z,92.09
2022-11-05T21:53:35.602Z,93.03
2022-11-05T21:56:37.820Z,93.14
2022-11-05T21:59:23.734Z,95.11
2022-11-05T22:01:50.383Z,92.16
2022-11-05T22:04:17.207Z,93.02
2022-11-05T22:06:43.761Z,92.00
2022-11-05T22:09:10.303Z,90.90
2022-11-05T22:11:37.631Z,89.85
2022-11-05T22:14:04.050Z,89.28
2022-11-05T22:16:30.599Z,89.43
2022-11-05T22:18:58.183Z,90.15
2022-11-05T22:21:26.103Z,90.90
2022-11-05T22:23:53.754Z,90.95
2022-11-05T22:26:24.199Z,91.10
2022-11-05T22:28:55.350Z,91.66
2022-11-05T22:31:22.522Z,91.92
2022-11-05T22:33:49.616Z,90.52
2022-11-05T22:36:16.197Z,89.30
2022-11-05T22:38:44.195Z,89.54
2022-11-05T22:41:14.255Z,92.39
2022-11-05T22:43:41.107Z,92.43
2022-11-05T22:46:22.816Z,91.47
2022-11-05T22:48:50.140Z,89.74
2022-11-05T22:51:37.270Z,90.30
2022-11-05T22:54:03.800Z,91.76
2022-11-05T22:56:33.119Z,90.63
2022-11-05T22:59:00.003Z,90.22
2022-11-05T23:01:27.159Z,91.78
2022-11-05T23:03:56.410Z,92.17
2022-11-05T23:06:44.270Z,90.93
2022-11-05T23:09:52.657Z,92.40
2022-11-05T23:12:45.049Z,93.56
2022-11-05T23:15:31.745Z,92.46
2022-11-05T23:18:18.855Z,93.23
2022-11-05T23:21:09.227Z,93.01
2022-11-05T23:23:55.688Z,92.25
2022-11-05T23:26:41.701Z,92.79
2022-11-05T23:29:09.374Z,93.79
2022-11-05T23:31:58.722Z,93.19
2022-11-05T23:34:26.483Z,93.25
2022-11-05T23:37:24.867Z,92.97
2022-11-05T23:39:52.790Z,93.47
2022-11-05T23:42:43.355Z,94.94
2022-11-05T23:45:38.133Z,94.30
2022-11-05T23:48:16.781Z,93.51
2022-11-05T23:51:00.872Z,94.14
2022-11-05T23:53:28.915Z,94.57
2022-11-05T23:56:10.529Z,94.40
2022-11-05T23:58:39.551Z,94.98
